sensor_id;sensor_type;location;lat;lon;timestamp;P1;durP1;ratioP1;P2;durP2;ratioP2
52590;SDS011;38483;42.620;25.394;2022-11-15T00:01:27;33.20;;;21.40;;
52590;SDS011;38483;42.620;25.394;2022-11-15T00:04:12;38.97;;;21.70;;
52590;SDS011;38483;42.620;25.394;2022-11-15T00:06:58;38.20;;;22.93;;
52590;SDS011;38483;42.620;25.394;2022-11-15T00:09:43;37.07;;;22.23;;
52590;SDS011;38483;42.620;25.394;2022-11-15T00:12:30;40.63;;;22.87;;
52590;SDS011;38483;42.620;25.394;2022-11-15T00:15:15;38.37;;;21.87;;
52590;SDS011;38483;42.620;25.394;2022-11-15T00:18:00;41.77;;;22.17;;
52590;SDS011;38483;42.620;25.394;2022-11-15T00:20:46;37.67;;;22.53;;
52590;SDS011;38483;42.620;25.394;2022-11-15T00:23:31;44.67;;;24.10;;
52590;SDS011;38483;42.620;25.394;2022-11-15T00:26:18;45.47;;;23.30;;
52590;SDS011;38483;42.620;25.394;2022-11-15T00:29:03;50.00;;;24.43;;
52590;SDS011;38483;42.620;25.394;2022-11-15T00:31:48;46.57;;;25.03;;
52590;SDS011;38483;42.620;25.394;2022-11-15T00:34:34;55.30;;;25.60;;
52590;SDS011;38483;42.620;25.394;2022-11-15T00:37:19;47.47;;;25.27;;
52590;SDS011;38483;42.620;25.394;2022-11-15T00:40:04;53.57;;;26.47;;
52590;SDS011;38483;42.620;25.394;2022-11-15T00:42:50;49.57;;;25.20;;
52590;SDS011;38483;42.620;25.394;2022-11-15T00:45:35;46.33;;;25.70;;
52590;SDS011;38483;42.620;25.394;2022-11-15T00:48:21;51.70;;;26.03;;
52590;SDS011;38483;42.620;25.394;2022-11-15T00:51:06;57.20;;;26.00;;
52590;SDS011;38483;42.620;25.394;2022-11-15T00:53:51;61.40;;;27.10;;
52590;SDS011;38483;42.620;25.394;2022-11-15T00:56:36;55.57;;;26.93;;
52590;SDS011;38483;42.620;25.394;2022-11-15T00:59:22;56.60;;;26.37;;
52590;SDS011;38483;42.620;25.394;2022-11-15T01:02:07;53.20;;;25.57;;
52590;SDS011;38483;42.620;25.394;2022-11-15T01:04:52;48.90;;;25.60;;
52590;SDS011;38483;42.620;25.394;2022-11-15T01:07:38;52.30;;;25.87;;
52590;SDS011;38483;42.620;25.394;2022-11-15T01:10:23;54.40;;;26.20;;
52590;SDS011;38483;42.620;25.394;2022-11-15T01:13:10;50.47;;;23.67;;
52590;SDS011;38483;42.620;25.394;2022-11-15T01:15:56;56.17;;;27.20;;
52590;SDS011;38483;42.620;25.394;2022-11-15T01:18:41;49.53;;;27.40;;
52590;SDS011;38483;42.620;25.394;2022-11-15T01:21:27;58.97;;;27.53;;
52590;SDS011;38483;42.620;25.394;2022-11-15T01:24:13;62.40;;;27.67;;
52590;SDS011;38483;42.620;25.394;2022-11-15T01:26:58;60.43;;;28.27;;
52590;SDS011;38483;42.620;25.394;2022-11-15T01:29:43;67.57;;;29.03;;
52590;SDS011;38483;42.620;25.394;2022-11-15T01:32:29;77.33;;;30.13;;
52590;SDS011;38483;42.620;25.394;2022-11-15T01:35:14;82.60;;;32.70;;
52590;SDS011;38483;42.620;25.394;2022-11-15T01:37:59;81.93;;;31.27;;
52590;SDS011;38483;42.620;25.394;2022-11-15T01:40:45;78.07;;;30.37;;
52590;SDS011;38483;42.620;25.394;2022-11-15T01:43:31;79.13;;;31.30;;
52590;SDS011;38483;42.620;25.394;2022-11-15T01:46:32;78.87;;;29.30;;
52590;SDS011;38483;42.620;25.394;2022-11-15T01:49:20;67.57;;;30.30;;
52590;SDS011;38483;42.620;25.394;2022-11-15T01:52:09;77.90;;;29.40;;
52590;SDS011;38483;42.620;25.394;2022-11-15T01:55:00;63.90;;;27.80;;
52590;SDS011;38483;42.620;25.394;2022-11-15T01:57:56;76.43;;;29.97;;
52590;SDS011;38483;42.620;25.394;2022-11-15T02:00:45;64.00;;;28.70;;
52590;SDS011;38483;42.620;25.394;2022-11-15T02:03:35;68.27;;;30.20;;
52590;SDS011;38483;42.620;25.394;2022-11-15T02:06:27;64.57;;;29.93;;
52590;SDS011;38483;42.620;25.394;2022-11-15T02:09:12;65.90;;;27.53;;
52590;SDS011;38483;42.620;25.394;2022-11-15T02:11:57;60.97;;;27.37;;
52590;SDS011;38483;42.620;25.394;2022-11-15T02:14:46;60.93;;;27.80;;
52590;SDS011;38483;42.620;25.394;2022-11-15T02:17:53;76.40;;;28.37;;
52590;SDS011;38483;42.620;25.394;2022-11-15T02:33:38;52.00;;;26.20;;
52590;SDS011;38483;42.620;25.394;2022-11-15T02:36:39;58.40;;;27.77;;
52590;SDS011;38483;42.620;25.394;2022-11-15T02:42:24;55.60;;;27.47;;
52590;SDS011;38483;42.620;25.394;2022-11-15T02:45:36;62.40;;;27.47;;
52590;SDS011;38483;42.620;25.394;2022-11-15T02:48:28;55.70;;;25.97;;
52590;SDS011;38483;42.620;25.394;2022-11-15T02:51:15;50.50;;;25.13;;
52590;SDS011;38483;42.620;25.394;2022-11-15T02:54:01;52.00;;;24.67;;
52590;SDS011;38483;42.620;25.394;2022-11-15T02:56:46;49.97;;;24.43;;
52590;SDS011;38483;42.620;25.394;2022-11-15T03:11:50;47.63;;;25.70;;
52590;SDS011;38483;42.620;25.394;2022-11-15T03:14:54;62.83;;;29.50;;
52590;SDS011;38483;42.620;25.394;2022-11-15T03:18:08;51.83;;;26.40;;
52590;SDS011;38483;42.620;25.394;2022-11-15T03:21:01;57.27;;;27.43;;
52590;SDS011;38483;42.620;25.394;2022-11-15T03:23:50;61.87;;;27.60;;
52590;SDS011;38483;42.620;25.394;2022-11-15T03:26:38;59.33;;;30.70;;
52590;SDS011;38483;42.620;25.394;2022-11-15T03:29:27;70.93;;;35.93;;
52590;SDS011;38483;42.620;25.394;2022-11-15T03:32:19;62.60;;;32.67;;
52590;SDS011;38483;42.620;25.394;2022-11-15T03:35:15;56.23;;;29.97;;
52590;SDS011;38483;42.620;25.394;2022-11-15T03:41:14;56.93;;;28.43;;
52590;SDS011;38483;42.620;25.394;2022-11-15T03:44:11;60.73;;;29.67;;
52590;SDS011;38483;42.620;25.394;2022-11-15T03:50:13;62.03;;;29.33;;
52590;SDS011;38483;42.620;25.394;2022-11-15T03:53:02;67.77;;;30.30;;
52590;SDS011;38483;42.620;25.394;2022-11-15T03:55:48;63.67;;;29.60;;
52590;SDS011;38483;42.620;25.394;2022-11-15T03:58:33;61.17;;;29.30;;
52590;SDS011;38483;42.620;25.394;2022-11-15T04:01:19;60.63;;;28.87;;
52590;SDS011;38483;42.620;25.394;2022-11-15T04:04:06;58.80;;;30.03;;
52590;SDS011;38483;42.620;25.394;2022-11-15T04:06:51;56.20;;;29.67;;
52590;SDS011;38483;42.620;25.394;2022-11-15T04:09:36;65.20;;;31.47;;
52590;SDS011;38483;42.620;25.394;2022-11-15T04:12:42;68.43;;;32.50;;
52590;SDS011;38483;42.620;25.394;2022-11-15T04:15:28;65.00;;;30.17;;
52590;SDS011;38483;42.620;25.394;2022-11-15T04:18:14;61.27;;;28.53;;
52590;SDS011;38483;42.620;25.394;2022-11-15T04:21:00;61.73;;;29.13;;
52590;SDS011;38483;42.620;25.394;2022-11-15T04:24:04;57.47;;;28.60;;
52590;SDS011;38483;42.620;25.394;2022-11-15T04:26:58;57.10;;;27.50;;
52590;SDS011;38483;42.620;25.394;2022-11-15T04:29:44;53.53;;;27.07;;
52590;SDS011;38483;42.620;25.394;2022-11-15T04:32:30;63.03;;;29.33;;
52590;SDS011;38483;42.620;25.394;2022-11-15T04:35:16;64.80;;;29.00;;
52590;SDS011;38483;42.620;25.394;2022-11-15T04:38:02;56.13;;;26.77;;
52590;SDS011;38483;42.620;25.394;2022-11-15T04:40:48;60.13;;;26.97;;
52590;SDS011;38483;42.620;25.394;2022-11-15T04:43:34;57.47;;;25.57;;
52590;SDS011;38483;42.620;25.394;2022-11-15T04:46:20;64.20;;;27.43;;
52590;SDS011;38483;42.620;25.394;2022-11-15T04:49:05;64.80;;;28.27;;
52590;SDS011;38483;42.620;25.394;2022-11-15T04:51:51;66.37;;;28.30;;
52590;SDS011;38483;42.620;25.394;2022-11-15T04:54:36;64.30;;;28.70;;
52590;SDS011;38483;42.620;25.394;2022-11-15T04:57:21;68.37;;;29.27;;
52590;SDS011;38483;42.620;25.394;2022-11-15T05:00:08;67.43;;;30.43;;
52590;SDS011;38483;42.620;25.394;2022-11-15T05:02:59;61.97;;;29.23;;
52590;SDS011;38483;42.620;25.394;2022-11-15T05:06:02;67.50;;;28.37;;
52590;SDS011;38483;42.620;25.394;2022-11-15T05:08:48;61.53;;;26.87;;
52590;SDS011;38483;42.620;25.394;2022-11-15T05:11:33;68.83;;;28.20;;
52590;SDS011;38483;42.620;25.394;2022-11-15T05:14:19;62.43;;;30.53;;
52590;SDS011;38483;42.620;25.394;2022-11-15T05:17:04;78.53;;;32.20;;
52590;SDS011;38483;42.620;25.394;2022-11-15T05:19:50;72.77;;;31.70;;
52590;SDS011;38483;42.620;25.394;2022-11-15T05:22:36;79.23;;;33.37;;
52590;SDS011;38483;42.620;25.394;2022-11-15T05:25:24;81.30;;;33.53;;
52590;SDS011;38483;42.620;25.394;2022-11-15T05:28:09;89.97;;;37.07;;
52590;SDS011;38483;42.620;25.394;2022-11-15T05:31:01;84.67;;;34.50;;
52590;SDS011;38483;42.620;25.394;2022-11-15T05:33:47;78.23;;;32.53;;
52590;SDS011;38483;42.620;25.394;2022-11-15T05:36:38;81.77;;;31.67;;
52590;SDS011;38483;42.620;25.394;2022-11-15T05:39:23;75.37;;;31.53;;
52590;SDS011;38483;42.620;25.394;2022-11-15T05:42:14;82.13;;;31.60;;
52590;SDS011;38483;42.620;25.394;2022-11-15T05:45:01;94.40;;;37.43;;
52590;SDS011;38483;42.620;25.394;2022-11-15T05:47:50;88.60;;;32.97;;
52590;SDS011;38483;42.620;25.394;2022-11-15T05:50:38;99.20;;;36.30;;
52590;SDS011;38483;42.620;25.394;2022-11-15T05:53:28;92.70;;;31.80;;
52590;SDS011;38483;42.620;25.394;2022-11-15T05:56:16;91.77;;;32.33;;
52590;SDS011;38483;42.620;25.394;2022-11-15T05:59:01;83.93;;;30.37;;
52590;SDS011;38483;42.620;25.394;2022-11-15T06:01:48;85.00;;;32.10;;
52590;SDS011;38483;42.620;25.394;2022-11-15T06:04:34;72.87;;;29.27;;
52590;SDS011;38483;42.620;25.394;2022-11-15T06:07:20;66.00;;;29.40;;
52590;SDS011;38483;42.620;25.394;2022-11-15T06:10:06;63.43;;;26.80;;
52590;SDS011;38483;42.620;25.394;2022-11-15T06:13:02;68.13;;;30.17;;
52590;SDS011;38483;42.620;25.394;2022-11-15T06:15:49;75.10;;;29.50;;
52590;SDS011;38483;42.620;25.394;2022-11-15T06:18:34;67.20;;;29.83;;
52590;SDS011;38483;42.620;25.394;2022-11-15T06:21:20;76.50;;;33.57;;
52590;SDS011;38483;42.620;25.394;2022-11-15T06:24:06;99.93;;;43.90;;
52590;SDS011;38483;42.620;25.394;2022-11-15T06:26:52;94.83;;;39.83;;
52590;SDS011;38483;42.620;25.394;2022-11-15T06:29:37;78.23;;;33.67;;
52590;SDS011;38483;42.620;25.394;2022-11-15T06:32:23;65.10;;;31.03;;
52590;SDS011;38483;42.620;25.394;2022-11-15T06:35:08;66.67;;;30.07;;
52590;SDS011;38483;42.620;25.394;2022-11-15T06:37:54;63.07;;;28.77;;
52590;SDS011;38483;42.620;25.394;2022-11-15T06:40:41;59.70;;;27.80;;
52590;SDS011;38483;42.620;25.394;2022-11-15T06:43:26;62.37;;;28.93;;
52590;SDS011;38483;42.620;25.394;2022-11-15T06:46:12;68.50;;;31.30;;
52590;SDS011;38483;42.620;25.394;2022-11-15T06:48:57;66.23;;;29.37;;
52590;SDS011;38483;42.620;25.394;2022-11-15T06:51:43;74.00;;;30.13;;
52590;SDS011;38483;42.620;25.394;2022-11-15T06:54:28;69.83;;;30.47;;
52590;SDS011;38483;42.620;25.394;2022-11-15T06:57:13;63.30;;;28.33;;
52590;SDS011;38483;42.620;25.394;2022-11-15T06:59:58;71.90;;;28.67;;
52590;SDS011;38483;42.620;25.394;2022-11-15T07:02:44;65.37;;;30.43;;
52590;SDS011;38483;42.620;25.394;2022-11-15T07:05:30;63.67;;;26.80;;
52590;SDS011;38483;42.620;25.394;2022-11-15T07:08:16;57.73;;;27.97;;
52590;SDS011;38483;42.620;25.394;2022-11-15T07:11:02;59.67;;;26.73;;
52590;SDS011;38483;42.620;25.394;2022-11-15T07:13:50;65.47;;;27.97;;
52590;SDS011;38483;42.620;25.394;2022-11-15T07:16:36;53.87;;;25.00;;
52590;SDS011;38483;42.620;25.394;2022-11-15T07:19:21;64.10;;;26.17;;
52590;SDS011;38483;42.620;25.394;2022-11-15T07:22:08;60.93;;;28.23;;
52590;SDS011;38483;42.620;25.394;2022-11-15T07:24:53;62.13;;;28.87;;
52590;SDS011;38483;42.620;25.394;2022-11-15T07:27:43;60.43;;;27.37;;
52590;SDS011;38483;42.620;25.394;2022-11-15T07:30:30;57.00;;;25.67;;
52590;SDS011;38483;42.620;25.394;2022-11-15T07:33:16;55.37;;;25.33;;
52590;SDS011;38483;42.620;25.394;2022-11-15T07:36:01;51.47;;;24.93;;
52590;SDS011;38483;42.620;25.394;2022-11-15T07:38:48;61.77;;;29.20;;
52590;SDS011;38483;42.620;25.394;2022-11-15T07:41:34;69.43;;;29.53;;
52590;SDS011;38483;42.620;25.394;2022-11-15T07:44:20;59.53;;;28.53;;
52590;SDS011;38483;42.620;25.394;2022-11-15T07:47:05;65.70;;;27.67;;
52590;SDS011;38483;42.620;25.394;2022-11-15T07:49:50;61.07;;;28.87;;
52590;SDS011;38483;42.620;25.394;2022-11-15T07:52:37;66.50;;;30.33;;
52590;SDS011;38483;42.620;25.394;2022-11-15T07:55:23;58.23;;;27.43;;
52590;SDS011;38483;42.620;25.394;2022-11-15T07:58:09;59.57;;;28.20;;
52590;SDS011;38483;42.620;25.394;2022-11-15T08:00:56;77.43;;;29.87;;
52590;SDS011;38483;42.620;25.394;2022-11-15T08:03:42;66.23;;;27.37;;
52590;SDS011;38483;42.620;25.394;2022-11-15T08:06:28;62.87;;;27.47;;
52590;SDS011;38483;42.620;25.394;2022-11-15T08:09:13;55.53;;;26.93;;
52590;SDS011;38483;42.620;25.394;2022-11-15T08:11:58;53.97;;;26.43;;
52590;SDS011;38483;42.620;25.394;2022-11-15T08:14:44;56.33;;;27.73;;
52590;SDS011;38483;42.620;25.394;2022-11-15T08:17:29;57.60;;;29.20;;
52590;SDS011;38483;42.620;25.394;2022-11-15T08:20:17;59.33;;;27.53;;
52590;SDS011;38483;42.620;25.394;2022-11-15T08:23:04;58.63;;;27.37;;
52590;SDS011;38483;42.620;25.394;2022-11-15T08:25:50;53.50;;;26.83;;
52590;SDS011;38483;42.620;25.394;2022-11-15T08:28:38;56.00;;;28.80;;
52590;SDS011;38483;42.620;25.394;2022-11-15T08:31:23;56.23;;;28.17;;
52590;SDS011;38483;42.620;25.394;2022-11-15T08:34:08;61.10;;;28.43;;
52590;SDS011;38483;42.620;25.394;2022-11-15T08:36:58;70.83;;;31.00;;
52590;SDS011;38483;42.620;25.394;2022-11-15T08:39:57;56.03;;;27.23;;
52590;SDS011;38483;42.620;25.394;2022-11-15T08:42:44;63.33;;;28.63;;
52590;SDS011;38483;42.620;25.394;2022-11-15T08:45:33;56.17;;;27.63;;
52590;SDS011;38483;42.620;25.394;2022-11-15T08:48:21;64.83;;;31.63;;
52590;SDS011;38483;42.620;25.394;2022-11-15T08:51:06;58.10;;;29.87;;
52590;SDS011;38483;42.620;25.394;2022-11-15T08:53:52;51.23;;;25.67;;
52590;SDS011;38483;42.620;25.394;2022-11-15T08:56:41;56.80;;;27.77;;
52590;SDS011;38483;42.620;25.394;2022-11-15T08:59:27;53.23;;;27.03;;
52590;SDS011;38483;42.620;25.394;2022-11-15T09:02:13;47.20;;;24.33;;
52590;SDS011;38483;42.620;25.394;2022-11-15T09:04:59;44.73;;;23.23;;
52590;SDS011;38483;42.620;25.394;2022-11-15T09:07:44;41.63;;;21.27;;
52590;SDS011;38483;42.620;25.394;2022-11-15T09:10:30;37.93;;;21.17;;
52590;SDS011;38483;42.620;25.394;2022-11-15T09:13:16;45.97;;;23.90;;
52590;SDS011;38483;42.620;25.394;2022-11-15T09:16:01;49.70;;;24.03;;
52590;SDS011;38483;42.620;25.394;2022-11-15T09:18:47;46.23;;;23.90;;
52590;SDS011;38483;42.620;25.394;2022-11-15T09:21:32;39.47;;;22.83;;
52590;SDS011;38483;42.620;25.394;2022-11-15T09:24:18;42.43;;;22.07;;
52590;SDS011;38483;42.620;25.394;2022-11-15T09:27:05;42.93;;;23.57;;
52590;SDS011;38483;42.620;25.394;2022-11-15T09:30:08;35.37;;;19.53;;
52590;SDS011;38483;42.620;25.394;2022-11-15T09:32:54;38.57;;;20.93;;
52590;SDS011;38483;42.620;25.394;2022-11-15T09:35:39;39.37;;;20.60;;
52590;SDS011;38483;42.620;25.394;2022-11-15T09:38:26;36.40;;;19.47;;
52590;SDS011;38483;42.620;25.394;2022-11-15T09:50:49;33.17;;;19.17;;
52590;SDS011;38483;42.620;25.394;2022-11-15T09:53:22;35.90;;;21.20;;
52590;SDS011;38483;42.620;25.394;2022-11-15T09:56:27;27.77;;;16.27;;
52590;SDS011;38483;42.620;25.394;2022-11-15T10:04:09;34.33;;;18.97;;
52590;SDS011;38483;42.620;25.394;2022-11-15T10:06:38;38.27;;;21.47;;
52590;SDS011;38483;42.620;25.394;2022-11-15T10:09:15;36.07;;;19.23;;
52590;SDS011;38483;42.620;25.394;2022-11-15T10:11:49;34.70;;;18.10;;
52590;SDS011;38483;42.620;25.394;2022-11-15T10:14:20;30.70;;;17.77;;
52590;SDS011;38483;42.620;25.394;2022-11-15T10:19:52;28.73;;;16.63;;
52590;SDS011;38483;42.620;25.394;2022-11-15T10:22:39;29.87;;;16.93;;
52590;SDS011;38483;42.620;25.394;2022-11-15T10:25:19;31.13;;;17.40;;
52590;SDS011;38483;42.620;25.394;2022-11-15T10:27:54;32.33;;;18.20;;
52590;SDS011;38483;42.620;25.394;2022-11-15T10:30:32;33.60;;;18.80;;
52590;SDS011;38483;42.620;25.394;2022-11-15T10:36:13;35.47;;;18.90;;
52590;SDS011;38483;42.620;25.394;2022-11-15T10:44:08;34.33;;;19.30;;
52590;SDS011;38483;42.620;25.394;2022-11-15T10:49:28;34.57;;;19.97;;
52590;SDS011;38483;42.620;25.394;2022-11-15T10:51:58;35.60;;;19.47;;
52590;SDS011;38483;42.620;25.394;2022-11-15T10:54:38;38.30;;;20.27;;
52590;SDS011;38483;42.620;25.394;2022-11-15T10:57:16;30.87;;;19.27;;
52590;SDS011;38483;42.620;25.394;2022-11-15T10:59:53;36.67;;;19.10;;
52590;SDS011;38483;42.620;25.394;2022-11-15T11:04:57;38.20;;;20.10;;
52590;SDS011;38483;42.620;25.394;2022-11-15T11:07:26;35.83;;;18.73;;
52590;SDS011;38483;42.620;25.394;2022-11-15T11:10:17;42.67;;;21.73;;
52590;SDS011;38483;42.620;25.394;2022-11-15T11:13:40;36.40;;;20.10;;
52590;SDS011;38483;42.620;25.394;2022-11-15T11:18:48;45.00;;;24.47;;
52590;SDS011;38483;42.620;25.394;2022-11-15T11:21:18;28.57;;;17.77;;
52590;SDS011;38483;42.620;25.394;2022-11-15T11:24:19;33.27;;;20.33;;
52590;SDS011;38483;42.620;25.394;2022-11-15T11:52:33;42.37;;;20.93;;
52590;SDS011;38483;42.620;25.394;2022-11-15T12:00:22;34.53;;;19.27;;
52590;SDS011;38483;42.620;25.394;2022-11-15T12:05:35;36.30;;;21.57;;
52590;SDS011;38483;42.620;25.394;2022-11-15T12:11:00;36.33;;;20.50;;
52590;SDS011;38483;42.620;25.394;2022-11-15T12:13:36;35.23;;;19.87;;
52590;SDS011;38483;42.620;25.394;2022-11-15T12:16:11;36.37;;;20.73;;
52590;SDS011;38483;42.620;25.394;2022-11-15T12:18:44;40.50;;;21.50;;
52590;SDS011;38483;42.620;25.394;2022-11-15T12:21:20;37.10;;;20.63;;
52590;SDS011;38483;42.620;25.394;2022-11-15T12:27:02;35.00;;;19.80;;
52590;SDS011;38483;42.620;25.394;2022-11-15T12:29:47;35.70;;;20.00;;
52590;SDS011;38483;42.620;25.394;2022-11-15T12:32:23;35.27;;;21.27;;
52590;SDS011;38483;42.620;25.394;2022-11-15T12:34:55;35.87;;;20.73;;
52590;SDS011;38483;42.620;25.394;2022-11-15T12:42:56;38.90;;;21.40;;
52590;SDS011;38483;42.620;25.394;2022-11-15T12:45:26;35.93;;;19.27;;
52590;SDS011;38483;42.620;25.394;2022-11-15T12:56:23;32.03;;;19.77;;
52590;SDS011;38483;42.620;25.394;2022-11-15T13:04:11;31.10;;;18.60;;
52590;SDS011;38483;42.620;25.394;2022-11-15T13:06:46;31.80;;;19.00;;
52590;SDS011;38483;42.620;25.394;2022-11-15T13:14:50;33.20;;;17.63;;
52590;SDS011;38483;42.620;25.394;2022-11-15T13:28:47;27.40;;;16.40;;
52590;SDS011;38483;42.620;25.394;2022-11-15T13:31:23;32.43;;;17.53;;
52590;SDS011;38483;42.620;25.394;2022-11-15T13:33:50;33.27;;;17.33;;
52590;SDS011;38483;42.620;25.394;2022-11-15T13:36:23;32.67;;;17.87;;
52590;SDS011;38483;42.620;25.394;2022-11-15T13:41:53;32.63;;;18.60;;
52590;SDS011;38483;42.620;25.394;2022-11-15T13:44:30;36.30;;;19.00;;
52590;SDS011;38483;42.620;25.394;2022-11-15T13:49:30;26.13;;;16.97;;
52590;SDS011;38483;42.620;25.394;2022-11-15T13:51:59;34.53;;;18.17;;
52590;SDS011;38483;42.620;25.394;2022-11-15T13:57:05;32.10;;;17.73;;
52590;SDS011;38483;42.620;25.394;2022-11-15T13:59:45;30.67;;;17.83;;
52590;SDS011;38483;42.620;25.394;2022-11-15T14:02:25;31.17;;;17.60;;
52590;SDS011;38483;42.620;25.394;2022-11-15T14:04:58;29.13;;;17.97;;
52590;SDS011;38483;42.620;25.394;2022-11-15T14:07:32;27.07;;;17.40;;
52590;SDS011;38483;42.620;25.394;2022-11-15T14:10:29;32.37;;;19.70;;
52590;SDS011;38483;42.620;25.394;2022-11-15T14:12:58;29.43;;;17.40;;
52590;SDS011;38483;42.620;25.394;2022-11-15T14:17:58;34.17;;;18.23;;
52590;SDS011;38483;42.620;25.394;2022-11-15T14:20:30;30.67;;;18.07;;
52590;SDS011;38483;42.620;25.394;2022-11-15T14:23:02;29.07;;;17.73;;
52590;SDS011;38483;42.620;25.394;2022-11-15T14:25:31;31.60;;;18.33;;
52590;SDS011;38483;42.620;25.394;2022-11-15T14:28:16;28.83;;;18.20;;
52590;SDS011;38483;42.620;25.394;2022-11-15T14:30:57;30.50;;;18.37;;
52590;SDS011;38483;42.620;25.394;2022-11-15T14:35:56;34.73;;;19.03;;
52590;SDS011;38483;42.620;25.394;2022-11-15T14:38:25;40.50;;;21.30;;
52590;SDS011;38483;42.620;25.394;2022-11-15T14:40:52;35.93;;;19.97;;
52590;SDS011;38483;42.620;25.394;2022-11-15T14:43:21;35.10;;;19.57;;
52590;SDS011;38483;42.620;25.394;2022-11-15T14:45:49;34.20;;;20.47;;
52590;SDS011;38483;42.620;25.394;2022-11-15T14:48:17;37.27;;;21.93;;
52590;SDS011;38483;42.620;25.394;2022-11-15T14:50:44;39.47;;;21.53;;
52590;SDS011;38483;42.620;25.394;2022-11-15T14:53:12;38.23;;;21.17;;
52590;SDS011;38483;42.620;25.394;2022-11-15T14:55:42;37.40;;;21.60;;
52590;SDS011;38483;42.620;25.394;2022-11-15T14:59:02;37.67;;;21.03;;
52590;SDS011;38483;42.620;25.394;2022-11-15T15:02:37;40.07;;;23.00;;
52590;SDS011;38483;42.620;25.394;2022-11-15T15:05:14;45.60;;;24.80;;
52590;SDS011;38483;42.620;25.394;2022-11-15T15:07:41;46.33;;;25.90;;
52590;SDS011;38483;42.620;25.394;2022-11-15T15:10:09;53.33;;;29.73;;
52590;SDS011;38483;42.620;25.394;2022-11-15T15:12:56;53.50;;;29.23;;
52590;SDS011;38483;42.620;25.394;2022-11-15T15:15:25;53.90;;;29.90;;
52590;SDS011;38483;42.620;25.394;2022-11-15T15:17:56;51.77;;;28.43;;
52590;SDS011;38483;42.620;25.394;2022-11-15T15:20:23;46.03;;;24.07;;
52590;SDS011;38483;42.620;25.394;2022-11-15T15:22:50;45.80;;;25.03;;
52590;SDS011;38483;42.620;25.394;2022-11-15T15:27:49;43.13;;;23.97;;
52590;SDS011;38483;42.620;25.394;2022-11-15T15:30:16;41.87;;;23.50;;
52590;SDS011;38483;42.620;25.394;2022-11-15T15:32:43;40.43;;;25.00;;
52590;SDS011;38483;42.620;25.394;2022-11-15T15:35:11;41.90;;;24.97;;
52590;SDS011;38483;42.620;25.394;2022-11-15T15:37:41;44.70;;;23.30;;
52590;SDS011;38483;42.620;25.394;2022-11-15T15:40:14;47.93;;;26.17;;
52590;SDS011;38483;42.620;25.394;2022-11-15T15:42:43;47.87;;;26.30;;
52590;SDS011;38483;42.620;25.394;2022-11-15T15:45:10;45.17;;;25.40;;
52590;SDS011;38483;42.620;25.394;2022-11-15T15:47:38;40.43;;;24.03;;
52590;SDS011;38483;42.620;25.394;2022-11-15T15:50:12;44.03;;;25.70;;
52590;SDS011;38483;42.620;25.394;2022-11-15T15:52:46;42.90;;;24.27;;
52590;SDS011;38483;42.620;25.394;2022-11-15T15:55:13;47.67;;;24.73;;
52590;SDS011;38483;42.620;25.394;2022-11-15T15:57:40;45.37;;;26.10;;
52590;SDS011;38483;42.620;25.394;2022-11-15T16:00:08;49.57;;;27.40;;
52590;SDS011;38483;42.620;25.394;2022-11-15T16:02:39;50.23;;;27.00;;
52590;SDS011;38483;42.620;25.394;2022-11-15T16:05:07;44.37;;;25.97;;
52590;SDS011;38483;42.620;25.394;2022-11-15T16:07:35;50.63;;;26.97;;
52590;SDS011;38483;42.620;25.394;2022-11-15T16:12:49;48.50;;;26.77;;
52590;SDS011;38483;42.620;25.394;2022-11-15T16:15:25;51.30;;;27.83;;
52590;SDS011;38483;42.620;25.394;2022-11-15T16:17:54;56.57;;;30.73;;
52590;SDS011;38483;42.620;25.394;2022-11-15T16:23:04;63.03;;;34.43;;
52590;SDS011;38483;42.620;25.394;2022-11-15T16:28:14;72.97;;;35.87;;
52590;SDS011;38483;42.620;25.394;2022-11-15T16:30:43;68.30;;;36.73;;
52590;SDS011;38483;42.620;25.394;2022-11-15T16:33:09;70.90;;;36.93;;
52590;SDS011;38483;42.620;25.394;2022-11-15T16:38:56;80.47;;;44.15;;
52590;SDS011;38483;42.620;25.394;2022-11-15T16:41:25;80.10;;;42.43;;
52590;SDS011;38483;42.620;25.394;2022-11-15T16:43:52;79.63;;;41.37;;
52590;SDS011;38483;42.620;25.394;2022-11-15T16:46:27;75.87;;;42.60;;
52590;SDS011;38483;42.620;25.394;2022-11-15T16:48:55;63.97;;;36.67;;
52590;SDS011;38483;42.620;25.394;2022-11-15T16:51:22;70.87;;;37.87;;
52590;SDS011;38483;42.620;25.394;2022-11-15T16:53:50;70.20;;;37.27;;
52590;SDS011;38483;42.620;25.394;2022-11-15T16:56:19;81.27;;;39.30;;
52590;SDS011;38483;42.620;25.394;2022-11-15T16:58:55;79.53;;;38.07;;
52590;SDS011;38483;42.620;25.394;2022-11-15T17:01:27;69.43;;;38.20;;
52590;SDS011;38483;42.620;25.394;2022-11-15T17:03:59;70.10;;;38.80;;
52590;SDS011;38483;42.620;25.394;2022-11-15T17:06:38;69.83;;;38.90;;
52590;SDS011;38483;42.620;25.394;2022-11-15T17:09:10;77.50;;;39.33;;
52590;SDS011;38483;42.620;25.394;2022-11-15T17:11:42;68.83;;;37.90;;
52590;SDS011;38483;42.620;25.394;2022-11-15T17:14:09;64.83;;;33.93;;
52590;SDS011;38483;42.620;25.394;2022-11-15T17:16:39;65.43;;;33.17;;
52590;SDS011;38483;42.620;25.394;2022-11-15T17:19:11;56.03;;;30.83;;
52590;SDS011;38483;42.620;25.394;2022-11-15T17:21:39;65.33;;;31.37;;
52590;SDS011;38483;42.620;25.394;2022-11-15T17:24:07;60.23;;;29.83;;
52590;SDS011;38483;42.620;25.394;2022-11-15T17:26:35;57.30;;;30.50;;
52590;SDS011;38483;42.620;25.394;2022-11-15T17:29:06;56.47;;;30.27;;
52590;SDS011;38483;42.620;25.394;2022-11-15T17:31:34;53.83;;;28.03;;
52590;SDS011;38483;42.620;25.394;2022-11-15T17:34:02;51.27;;;28.67;;
52590;SDS011;38483;42.620;25.394;2022-11-15T17:36:36;54.77;;;31.17;;
52590;SDS011;38483;42.620;25.394;2022-11-15T17:39:17;59.97;;;33.10;;
52590;SDS011;38483;42.620;25.394;2022-11-15T17:41:53;54.90;;;30.37;;
52590;SDS011;38483;42.620;25.394;2022-11-15T17:45:19;57.03;;;29.13;;
52590;SDS011;38483;42.620;25.394;2022-11-15T17:47:46;58.47;;;29.33;;
52590;SDS011;38483;42.620;25.394;2022-11-15T17:50:13;59.17;;;31.33;;
52590;SDS011;38483;42.620;25.394;2022-11-15T17:52:40;57.60;;;30.23;;
52590;SDS011;38483;42.620;25.394;2022-11-15T17:55:07;49.13;;;26.50;;
52590;SDS011;38483;42.620;25.394;2022-11-15T17:57:35;47.60;;;26.80;;
52590;SDS011;38483;42.620;25.394;2022-11-15T18:00:03;49.73;;;26.60;;
52590;SDS011;38483;42.620;25.394;2022-11-15T18:02:31;44.13;;;25.30;;
52590;SDS011;38483;42.620;25.394;2022-11-15T18:04:58;50.47;;;25.57;;
52590;SDS011;38483;42.620;25.394;2022-11-15T18:07:28;46.63;;;25.70;;
52590;SDS011;38483;42.620;25.394;2022-11-15T18:10:10;44.80;;;25.13;;
52590;SDS011;38483;42.620;25.394;2022-11-15T18:12:43;41.57;;;24.90;;
52590;SDS011;38483;42.620;25.394;2022-11-15T18:15:10;54.77;;;29.20;;
52590;SDS011;38483;42.620;25.394;2022-11-15T18:17:37;55.43;;;29.00;;
52590;SDS011;38483;42.620;25.394;2022-11-15T18:20:04;55.63;;;29.43;;
52590;SDS011;38483;42.620;25.394;2022-11-15T18:22:31;50.87;;;29.27;;